Time;durP1;ratioP1;P1;durP2;ratioP2;P2;SDS_P1;SDS_P2;PMS_P1;PMS_P2;Temp;Humidity;BMP_temperature;BMP_pressure;BME280_temperature;BME280_humidity;BME280_pressure;Samples;Min_cycle;Max_cycle;Signal;HPM_P1;HPM_P2
2021/10/29 00:01:01;;;;;;;2.10;1.65;;;24.10;40.40;;;;;;5071686;28;20388;-70
2021/10/29 00:03:27;;;;;;;2.67;1.80;;;24.10;40.40;;;;;;5071660;28;20410;-81
2021/10/29 00:05:53;;;;;;;2.53;1.67;;;24.10;40.30;;;;;;5071634;28;20715;-79
2021/10/29 00:08:18;;;;;;;2.30;1.70;;;24.10;40.30;;;;;;5071445;28;20387;-64
2021/10/29 00:10:44;;;;;;;2.10;1.73;;;24.10;40.90;;;;;;5053530;28;20819;-64
2021/10/29 00:13:10;;;;;;;2.30;1.70;;;24.10;40.30;;;;;;5071744;28;20392;-64
2021/10/29 00:15:38;;;;;;;2.20;1.80;;;24.10;40.30;;;;;;5053438;28;20886;-64
2021/10/29 00:18:04;;;;;;;2.50;1.65;;;24.00;40.30;;;;;;5071581;28;20387;-65
2021/10/29 00:20:30;;;;;;;2.50;1.75;;;24.00;40.30;;;;;;5071415;28;20403;-64
2021/10/29 00:22:56;;;;;;;2.57;1.87;;;24.00;40.30;;;;;;5071573;28;20877;-85
2021/10/29 00:25:22;;;;;;;2.10;1.50;;;24.00;40.20;;;;;;5073841;28;20411;-65
2021/10/29 00:27:48;;;;;;;2.72;1.60;;;24.00;40.20;;;;;;5075050;28;20392;-64
2021/10/29 00:30:14;;;;;;;2.50;2.00;;;24.00;40.20;;;;;;5075185;28;20399;-65
2021/10/29 00:32:40;;;;;;;2.40;1.80;;;24.00;40.20;;;;;;5075056;28;20407;-66
2021/10/29 00:35:06;;;;;;;2.03;1.67;;;24.00;40.20;;;;;;5075239;28;20384;-85
2021/10/29 00:37:37;;;;;;;2.30;1.70;;;23.90;40.20;;;;;;5074772;28;20485;-65
2021/10/29 00:40:05;;;;;;;1.90;1.65;;;24.00;40.20;;;;;;5074747;28;20428;-65
2021/10/29 00:42:30;;;;;;;1.90;1.42;;;23.90;40.20;;;;;;5074619;28;20518;-64
2021/10/29 00:44:56;;;;;;;1.70;1.60;;;24.00;40.20;;;;;;5074975;28;20412;-65
2021/10/29 00:47:22;;;;;;;2.60;1.70;;;24.00;40.20;;;;;;5074899;28;20399;-65
2021/10/29 00:49:48;;;;;;;2.10;1.70;;;24.00;40.30;;;;;;5074904;28;20398;-64
2021/10/29 00:52:14;;;;;;;1.60;1.40;;;24.00;40.20;;;;;;5074398;28;20415;-64
2021/10/29 00:54:40;;;;;;;1.95;1.60;;;23.90;40.70;;;;;;5069392;28;20475;-65
2021/10/29 00:57:05;;;;;;;2.20;1.90;;;23.90;40.20;;;;;;5056807;28;20468;-67
2021/10/29 00:59:31;;;;;;;2.17;1.70;;;23.90;40.10;;;;;;5074447;28;20421;-64
2021/10/29 01:01:57;;;;;;;2.33;1.75;;;23.90;40.20;;;;;;5074558;28;20388;-86
2021/10/29 01:04:24;;;;;;;2.70;1.50;;;23.90;40.20;;;;;;5074353;28;20470;-64
2021/10/29 01:06:50;;;;;;;2.20;1.90;;;23.90;40.20;;;;;;5074266;28;20872;-64
2021/10/29 01:09:15;;;;;;;2.63;1.73;;;23.90;40.20;;;;;;5074297;28;20437;-65
2021/10/29 01:11:43;;;;;;;2.00;1.77;;;23.90;40.20;;;;;;5074243;28;20416;-64
2021/10/29 01:14:08;;;;;;;2.42;1.80;;;23.90;40.10;;;;;;5056333;28;20734;-65
2021/10/29 01:16:34;;;;;;;2.38;1.80;;;23.90;40.10;;;;;;5074355;28;20390;-65
2021/10/29 01:19:00;;;;;;;1.73;1.50;;;23.90;40.20;;;;;;5074473;28;20393;-85
2021/10/29 01:21:26;;;;;;;2.20;1.50;;;23.80;40.10;;;;;;5074082;28;20403;-65
2021/10/29 01:23:51;;;;;;;2.10;1.60;;;23.80;40.10;;;;;;5073827;28;21093;-65
2021/10/29 01:26:17;;;;;;;2.20;1.50;;;23.80;40.10;;;;;;5074057;28;20470;-65
2021/10/29 01:28:45;;;;;;;2.10;1.45;;;23.90;40.20;;;;;;5073864;28;20436;-64
2021/10/29 01:31:11;;;;;;;2.38;1.60;;;23.90;40.70;;;;;;5073784;28;20423;-64
2021/10/29 01:33:37;;;;;;;2.17;1.53;;;23.80;40.10;;;;;;5073744;28;20455;-64
2021/10/29 01:36:04;;;;;;;2.58;1.58;;;23.90;40.20;;;;;;5088670;28;20394;-65
2021/10/29 01:38:35;;;;;;;2.00;1.50;;;23.80;40.20;;;;;;5073720;28;20940;-65
2021/10/29 01:41:01;;;;;;;1.85;1.45;;;23.80;40.20;;;;;;5073725;28;20399;-65
2021/10/29 01:43:27;;;;;;;2.42;1.70;;;23.80;40.00;;;;;;5073586;28;20861;-64
2021/10/29 01:45:56;;;;;;;1.70;1.40;;;23.80;40.10;;;;;;5073468;28;20884;-64
2021/10/29 01:48:23;;;;;;;1.90;1.50;;;23.80;40.10;;;;;;5073555;28;20849;-64
2021/10/29 01:50:50;;;;;;;1.98;1.70;;;23.80;40.10;;;;;;5073361;28;20419;-64
2021/10/29 01:53:16;;;;;;;1.70;1.40;;;23.80;40.10;;;;;;5073359;28;20889;-64
2021/10/29 01:55:41;;;;;;;2.22;1.58;;;23.80;40.10;;;;;;5073242;28;20395;-64
2021/10/29 01:58:07;;;;;;;1.63;1.40;;;23.80;40.00;;;;;;5073349;28;20396;-64
2021/10/29 02:00:33;;;;;;;1.83;1.58;;;23.80;40.00;;;;;;5073141;28;20388;-64
2021/10/29 02:02:59;;;;;;;1.83;1.50;;;23.80;40.00;;;;;;5073283;28;20912;-64
2021/10/29 02:05:25;;;;;;;1.97;1.70;;;23.80;40.00;;;;;;5054981;28;20410;-85
2021/10/29 02:07:51;;;;;;;1.80;1.50;;;23.70;39.90;;;;;;5073078;28;20866;-64
2021/10/29 02:10:16;;;;;;;1.97;1.50;;;23.70;39.90;;;;;;5054740;28;20429;-65
2021/10/29 02:12:43;;;;;;;2.22;1.40;;;23.70;39.90;;;;;;5072778;28;20422;-64
2021/10/29 02:15:09;;;;;;;2.63;1.70;;;23.70;40.00;;;;;;5073007;28;20429;-65
2021/10/29 02:17:35;;;;;;;1.75;1.35;;;23.70;40.00;;;;;;5054889;28;20404;-64
2021/10/29 02:20:01;;;;;;;1.73;1.48;;;23.70;40.00;;;;;;5072706;28;20403;-64
2021/10/29 02:22:27;;;;;;;2.00;1.50;;;23.70;40.00;;;;;;5072822;28;20376;-64
2021/10/29 02:24:53;;;;;;;2.03;1.45;;;23.70;40.00;;;;;;5072718;28;20391;-64
2021/10/29 02:27:19;;;;;;;1.70;1.40;;;23.70;40.00;;;;;;5072756;28;20387;-64
2021/10/29 02:29:46;;;;;;;1.60;1.48;;;23.70;40.00;;;;;;5072594;28;20388;-64
2021/10/29 02:32:11;;;;;;;2.25;1.70;;;23.70;39.90;;;;;;5072539;28;20435;-65
2021/10/29 02:34:37;;;;;;;2.10;1.60;;;23.70;39.90;;;;;;5072487;28;20472;-64
2021/10/29 02:37:03;;;;;;;1.70;1.50;;;23.70;39.90;;;;;;5072558;28;20398;-64
2021/10/29 02:39:29;;;;;;;1.90;1.60;;;23.70;39.90;;;;;;5072438;28;20745;-64
2021/10/29 02:41:55;;;;;;;1.80;1.60;;;23.70;39.90;;;;;;5072448;28;20402;-64
2021/10/29 02:44:21;;;;;;;2.10;1.50;;;23.60;39.80;;;;;;5072492;28;20944;-64
2021/10/29 02:46:47;;;;;;;1.60;1.30;;;23.70;39.80;;;;;;5054363;28;20433;-64
2021/10/29 02:49:12;;;;;;;3.05;1.40;;;23.60;39.80;;;;;;5053628;28;20399;-64
2021/10/29 02:51:38;;;;;;;1.60;1.40;;;23.60;39.80;;;;;;5072186;28;20422;-64
2021/10/29 02:54:04;;;;;;;1.65;1.45;;;23.60;39.70;;;;;;5072313;28;20388;-64
2021/10/29 02:56:29;;;;;;;2.00;1.50;;;23.60;39.80;;;;;;5072190;28;20388;-64
2021/10/29 02:58:55;;;;;;;1.85;1.38;;;23.60;39.70;;;;;;5072236;28;20387;-64
2021/10/29 03:01:21;;;;;;;2.65;1.50;;;23.60;39.70;;;;;;5072174;28;20402;-64
2021/10/29 03:03:46;;;;;;;3.58;1.50;;;23.60;39.80;;;;;;5072103;28;20407;-64
2021/10/29 03:06:12;;;;;;;2.40;1.60;;;23.50;40.00;;;;;;5072150;28;20475;-64
2021/10/29 03:08:38;;;;;;;2.30;1.60;;;23.50;39.90;;;;;;5072191;28;20395;-63
2021/10/29 03:11:03;;;;;;;7.63;1.90;;;23.50;40.10;;;;;;5071861;28;20399;-63
2021/10/29 03:13:29;;;;;;;6.53;1.70;;;23.50;41.00;;;;;;5053951;28;20545;-63
2021/10/29 03:15:55;;;;;;;3.95;1.50;;;23.60;41.40;;;;;;5072120;28;20512;-63
2021/10/29 03:18:21;;;;;;;5.27;1.53;;;23.50;40.70;;;;;;5072016;28;20471;-63
2021/10/29 03:20:48;;;;;;;5.55;1.80;;;23.50;41.00;;;;;;5071812;28;20403;-63
2021/10/29 03:23:15;;;;;;;4.95;1.92;;;23.50;41.50;;;;;;5053975;28;20408;-63
2021/10/29 03:25:42;;;;;;;3.63;1.50;;;23.60;41.70;;;;;;5071360;28;20388;-64
2021/10/29 03:28:08;;;;;;;4.38;1.70;;;23.50;41.80;;;;;;5071576;28;20398;-63
2021/10/29 03:30:34;;;;;;;6.07;1.98;;;23.60;41.50;;;;;;5071698;28;20394;-63
2021/10/29 03:33:00;;;;;;;10.15;2.13;;;23.70;41.20;;;;;;5071953;28;20388;-84
2021/10/29 03:35:25;;;;;;;6.33;1.80;;;23.60;42.10;;;;;;5072175;28;20391;-64
2021/10/29 03:43:32;;;;;;;6.13;1.60;;;23.70;42.00;;;;;;5072628;28;20380;-83
2021/10/29 03:46:18;;;;;;;5.45;1.83;;;23.70;41.90;;;;;;5072243;28;20387;-64
2021/10/29 03:48:58;;;;;;;4.00;1.63;;;23.70;41.70;;;;;;5053726;28;20889;-64
2021/10/29 03:51:34;;;;;;;5.80;1.90;;;23.70;41.80;;;;;;5073245;28;20426;-64
2021/10/29 03:54:10;;;;;;;3.47;1.52;;;23.70;42.30;;;;;;5072352;28;20380;-65
2021/10/29 03:56:45;;;;;;;4.90;1.80;;;23.70;41.30;;;;;;5072056;28;20398;-63
2021/10/29 03:59:12;;;;;;;4.57;1.80;;;23.70;41.20;;;;;;5054957;28;20480;-64
2021/10/29 04:01:38;;;;;;;3.17;1.70;;;23.70;41.10;;;;;;5075878;28;20437;-67
2021/10/29 04:04:04;;;;;;;3.42;1.50;;;23.60;41.20;;;;;;5057762;28;20392;-64
2021/10/29 04:06:30;;;;;;;5.80;1.80;;;23.60;41.20;;;;;;5075901;28;20396;-84
2021/10/29 04:08:56;;;;;;;4.90;1.80;;;23.60;41.20;;;;;;5075725;28;20409;-64
2021/10/29 04:11:24;;;;;;;5.25;1.70;;;23.60;41.00;;;;;;5075884;28;20837;-64
2021/10/29 04:13:50;;;;;;;7.40;2.03;;;23.70;41.20;;;;;;5075576;28;20395;-65
2021/10/29 04:16:17;;;;;;;5.47;1.80;;;23.50;40.80;;;;;;5075370;28;20459;-66
2021/10/29 04:18:43;;;;;;;6.10;1.90;;;23.60;41.30;;;;;;5075837;28;20460;-76
2021/10/29 04:21:08;;;;;;;4.75;1.80;;;23.70;41.30;;;;;;5057207;28;20415;-82
2021/10/29 04:23:34;;;;;;;4.87;1.60;;;23.70;40.80;;;;;;5075719;28;20392;-66
2021/10/29 04:26:00;;;;;;;5.28;1.77;;;23.70;40.80;;;;;;5075400;28;20387;-83
2021/10/29 04:28:27;;;;;;;5.80;1.60;;;23.70;40.80;;;;;;5089587;28;20457;-81
2021/10/29 04:30:53;;;;;;;3.33;1.60;;;23.70;40.80;;;;;;5075794;28;20454;-81
2021/10/29 04:33:20;;;;;;;5.18;1.67;;;23.70;41.30;;;;;;5059174;28;20423;-71
2021/10/29 04:35:50;;;;;;;3.97;1.70;;;23.80;41.40;;;;;;5081489;28;20394;-63
2021/10/29 04:38:16;;;;;;;4.20;1.60;;;23.80;41.00;;;;;;5077126;28;20960;-64
2021/10/29 04:40:42;;;;;;;5.40;1.70;;;23.80;39.70;;;;;;5074686;28;20431;-71
2021/10/29 04:43:10;;;;;;;3.92;1.60;;;23.70;40.50;;;;;;5078157;28;20739;-82
2021/10/29 04:45:36;;;;;;;4.70;1.50;;;23.80;40.70;;;;;;5085448;28;20392;-82
2021/10/29 04:48:03;;;;;;;6.20;1.70;;;23.80;40.50;;;;;;5075288;28;20388;-65
2021/10/29 04:50:29;;;;;;;4.43;1.90;;;23.80;40.60;;;;;;5074451;28;20398;-68
2021/10/29 04:52:56;;;;;;;8.63;1.92;;;23.80;40.60;;;;;;5074439;28;20947;-62
2021/10/29 04:55:21;;;;;;;8.98;1.80;;;23.80;40.40;;;;;;5074482;28;21086;-67
2021/10/29 04:57:47;;;;;;;8.80;1.80;;;23.80;40.30;;;;;;5074438;28;20396;-71
2021/10/29 05:00:13;;;;;;;4.33;2.03;;;23.80;40.50;;;;;;5074379;28;20433;-70
2021/10/29 05:02:39;;;;;;;5.70;2.10;;;23.70;39.60;;;;;;5056344;28;20471;-79
2021/10/29 05:05:07;;;;;;;4.27;2.10;;;23.70;39.20;;;;;;5074265;28;20475;-68
2021/10/29 05:07:33;;;;;;;8.38;2.20;;;23.60;38.70;;;;;;5074310;28;20388;-63
2021/10/29 05:09:59;;;;;;;5.75;2.00;;;23.60;39.40;;;;;;5074815;28;20388;-81
2021/10/29 05:12:26;;;;;;;4.97;1.80;;;23.60;38.70;;;;;;5073767;28;20477;-64
2021/10/29 05:14:52;;;;;;;4.40;1.70;;;23.60;39.50;;;;;;5074131;28;20392;-72
2021/10/29 05:17:18;;;;;;;4.55;2.05;;;23.50;38.90;;;;;;5074286;28;20390;-81
2021/10/29 05:19:43;;;;;;;5.05;2.00;;;23.50;38.90;;;;;;5048212;28;20404;-63
2021/10/29 05:22:09;;;;;;;3.90;2.20;;;23.50;39.00;;;;;;5032932;28;20753;-63
2021/10/29 05:24:35;;;;;;;5.43;2.00;;;23.50;38.90;;;;;;5034075;28;20477;-63
2021/10/29 05:27:00;;;;;;;4.22;1.90;;;23.50;38.80;;;;;;5034106;28;20396;-63
2021/10/29 05:29:26;;;;;;;3.93;2.30;;;23.50;38.90;;;;;;5032600;28;20797;-63
2021/10/29 05:31:52;;;;;;;3.83;1.90;;;23.50;39.70;;;;;;5033792;28;20415;-63
2021/10/29 05:34:19;;;;;;;3.55;2.13;;;23.50;41.70;;;;;;5033885;28;20383;-63
2021/10/29 05:36:44;;;;;;;4.30;1.67;;;23.50;41.30;;;;;;5033967;28;20507;-63
2021/10/29 05:39:10;;;;;;;4.15;2.00;;;23.50;40.30;;;;;;5033732;28;20533;-64
2021/10/29 05:41:36;;;;;;;5.30;1.95;;;23.50;41.30;;;;;;5033929;28;20399;-88
2021/10/29 05:44:02;;;;;;;5.28;2.03;;;23.60;43.00;;;;;;5033989;28;20811;-69
2021/10/29 05:46:32;;;;;;;4.43;1.98;;;23.60;42.30;;;;;;5033778;28;20453;-63
2021/10/29 05:48:59;;;;;;;5.32;2.38;;;23.60;42.80;;;;;;5033672;28;20391;-63
2021/10/29 05:51:26;;;;;;;74.75;25.90;;;23.50;42.30;;;;;;5033563;28;20426;-63
2021/10/29 05:54:07;;;;;;;177.90;59.20;;;23.50;43.60;;;;;;5033385;28;20386;-63
2021/10/29 05:56:33;;;;;;;87.82;28.00;;;23.50;43.30;;;;;;5031630;28;20405;-63
2021/10/29 05:59:03;;;;;;;46.30;16.60;;;23.50;41.90;;;;;;5033051;28;20383;-63
2021/10/29 06:01:29;;;;;;;46.90;15.10;;;23.40;41.90;;;;;;5033131;28;20422;-63
2021/10/29 06:03:55;;;;;;;26.05;10.05;;;23.40;42.20;;;;;;5033236;28;20391;-63
2021/10/29 06:06:20;;;;;;;33.50;11.47;;;23.40;41.10;;;;;;5033464;28;20395;-63
2021/10/29 06:08:46;;;;;;;33.30;11.48;;;23.30;41.70;;;;;;5031753;28;20422;-63
2021/10/29 06:11:12;;;;;;;25.92;9.63;;;23.30;42.10;;;;;;5032995;28;20415;-63
2021/10/29 06:13:38;;;;;;;26.13;9.77;;;23.30;43.30;;;;;;5033090;28;20399;-63
2021/10/29 06:16:06;;;;;;;26.50;9.10;;;23.30;42.70;;;;;;5032940;28;20379;-63
2021/10/29 06:18:31;;;;;;;24.55;8.95;;;23.30;42.10;;;;;;5031638;28;20391;-63
2021/10/29 06:20:57;;;;;;;24.77;8.20;;;23.30;42.50;;;;;;5062044;28;20411;-63
2021/10/29 06:23:33;;;;;;;23.67;7.97;;;23.20;42.80;;;;;;5072743;28;20388;-63
2021/10/29 06:25:59;;;;;;;21.80;7.40;;;23.20;42.30;;;;;;5072860;28;20400;-63
2021/10/29 06:28:31;;;;;;;19.35;7.18;;;23.20;41.40;;;;;;5072950;28;20410;-63
2021/10/29 06:30:57;;;;;;;19.63;6.90;;;23.20;42.30;;;;;;5054631;28;20806;-63
2021/10/29 06:33:24;;;;;;;15.55;6.60;;;23.30;42.10;;;;;;5072652;28;20425;-63
2021/10/29 06:35:52;;;;;;;14.98;6.28;;;23.30;41.40;;;;;;5072721;28;20384;-63
2021/10/29 06:38:18;;;;;;;14.90;5.93;;;23.30;42.10;;;;;;5072689;28;20422;-63
2021/10/29 06:40:46;;;;;;;11.77;5.17;;;23.30;41.20;;;;;;5072450;28;20427;-62
2021/10/29 06:48:53;;;;;;;11.82;4.60;;;23.20;40.90;;;;;;5072391;28;20403;-63
2021/10/29 07:42:22;;;;;;;3.97;2.20;;;23.00;40.60;;;;;;5071809;28;20876;-63
2021/10/29 07:44:48;;;;;;;5.72;2.42;;;23.10;41.20;;;;;;5071865;28;20453;-63
2021/10/29 07:47:14;;;;;;;5.75;2.60;;;23.10;40.60;;;;;;5071466;28;20388;-62
2021/10/29 07:49:40;;;;;;;4.40;2.50;;;23.00;38.90;;;;;;5071397;28;20423;-63
2021/10/29 07:52:06;;;;;;;5.88;2.30;;;22.90;38.20;;;;;;5071523;28;20498;-63
2021/10/29 07:54:32;;;;;;;5.57;2.50;;;22.90;38.10;;;;;;5071905;28;20419;-63
2021/10/29 07:56:58;;;;;;;7.53;2.60;;;22.90;38.40;;;;;;5071634;28;20512;-83
2021/10/29 07:59:24;;;;;;;6.28;2.70;;;22.90;38.60;;;;;;5071695;28;20433;-63
2021/10/29 08:01:50;;;;;;;6.38;2.30;;;22.90;39.00;;;;;;5071589;28;20392;-83
2021/10/29 08:04:18;;;;;;;6.43;2.70;;;22.80;39.00;;;;;;5071967;28;20384;-63
2021/10/29 08:06:44;;;;;;;5.55;2.47;;;22.80;39.60;;;;;;5071664;28;20445;-82
2021/10/29 08:09:10;;;;;;;4.83;2.53;;;22.80;39.10;;;;;;5071637;28;20471;-63
2021/10/29 08:11:37;;;;;;;5.47;2.30;;;22.90;39.20;;;;;;5068431;28;20443;-63
2021/10/29 08:14:02;;;;;;;6.20;2.28;;;22.80;39.20;;;;;;5067362;28;20387;-64
2021/10/29 08:16:28;;;;;;;5.03;2.08;;;22.80;39.40;;;;;;5053403;28;20395;-63
2021/10/29 08:18:54;;;;;;;4.47;2.40;;;22.80;39.30;;;;;;5071006;28;20380;-66
2021/10/29 08:21:19;;;;;;;4.97;2.35;;;22.80;39.50;;;;;;5071016;28;20503;-63
2021/10/29 08:23:45;;;;;;;4.10;1.80;;;22.80;39.40;;;;;;5070718;28;20372;-63
2021/10/29 08:26:14;;;;;;;4.32;2.15;;;22.80;39.50;;;;;;5071230;28;20506;-63
2021/10/29 08:28:41;;;;;;;5.10;2.10;;;22.80;40.00;;;;;;5070750;28;20399;-63
2021/10/29 08:31:06;;;;;;;4.30;1.95;;;22.80;39.30;;;;;;5070411;28;20407;-63
2021/10/29 08:33:32;;;;;;;3.57;1.80;;;22.90;39.30;;;;;;5070891;28;20407;-63
2021/10/29 08:36:00;;;;;;;3.13;2.00;;;22.90;39.10;;;;;;5071213;28;20895;-63
2021/10/29 08:38:26;;;;;;;3.53;2.00;;;22.90;39.00;;;;;;5071193;28;20403;-63
2021/10/29 08:40:53;;;;;;;2.47;1.90;;;22.90;39.00;;;;;;5052949;28;20412;-63
2021/10/29 08:43:19;;;;;;;3.70;1.60;;;22.90;38.80;;;;;;5071186;28;20467;-63
2021/10/29 08:45:46;;;;;;;3.55;1.88;;;23.00;38.80;;;;;;5070725;28;20453;-63
2021/10/29 08:48:12;;;;;;;3.88;1.98;;;23.00;38.70;;;;;;5056466;28;20430;-63
2021/10/29 08:50:38;;;;;;;2.75;1.73;;;23.00;38.70;;;;;;5074483;28;20384;-63
2021/10/29 08:53:03;;;;;;;2.53;1.83;;;23.00;38.70;;;;;;5074589;28;20392;-63
2021/10/29 08:55:32;;;;;;;2.78;1.50;;;23.00;38.70;;;;;;5074477;28;20382;-63
2021/10/29 08:58:01;;;;;;;2.40;1.60;;;23.00;38.70;;;;;;5074479;28;20432;-63
2021/10/29 09:00:33;;;;;;;2.58;1.70;;;23.00;38.60;;;;;;5074445;28;20427;-63
2021/10/29 09:03:05;;;;;;;2.13;1.60;;;23.10;38.70;;;;;;5074511;28;20392;-63
2021/10/29 09:05:56;;;;;;;2.00;1.50;;;23.10;39.20;;;;;;5074243;28;20379;-63
2021/10/29 09:08:41;;;;;;;2.17;1.55;;;23.10;38.70;;;;;;5074332;28;20491;-63
2021/10/29 09:33:05;;;;;;;1.70;1.20;;;23.30;38.60;;;;;;5073742;28;20468;-63
2021/10/29 09:35:35;;;;;;;2.20;1.40;;;23.30;38.60;;;;;;5073664;28;20390;-63
2021/10/29 09:38:15;;;;;;;2.03;1.30;;;23.30;38.50;;;;;;5073673;28;20417;-63
2021/10/29 09:40:56;;;;;;;1.77;1.20;;;23.40;38.40;;;;;;5073342;28;20383;-63
2021/10/29 09:43:24;;;;;;;1.70;1.27;;;23.40;38.40;;;;;;5073767;28;20873;-63
2021/10/29 09:45:56;;;;;;;1.70;1.30;;;23.50;38.40;;;;;;5073232;28;20864;-63
2021/10/29 09:48:29;;;;;;;1.80;1.33;;;23.40;38.90;;;;;;5055285;28;20418;-63
2021/10/29 09:50:55;;;;;;;2.03;1.20;;;23.40;38.50;;;;;;5073437;28;20556;-63
2021/10/29 09:53:35;;;;;;;1.70;1.17;;;23.40;38.60;;;;;;5073507;28;20758;-63
2021/10/29 09:56:21;;;;;;;1.58;1.13;;;23.40;38.50;;;;;;5073174;28;20441;-63
2021/10/29 09:58:51;;;;;;;1.75;1.30;;;23.40;38.50;;;;;;5054830;28;20475;-63
2021/10/29 10:01:22;;;;;;;1.83;1.10;;;23.40;38.40;;;;;;5073284;28;20387;-63
2021/10/29 10:03:50;;;;;;;1.70;1.38;;;23.40;38.50;;;;;;5073238;28;20376;-63
2021/10/29 10:06:20;;;;;;;2.15;1.20;;;23.50;38.50;;;;;;5073261;28;20463;-63
2021/10/29 10:08:46;;;;;;;1.60;1.23;;;23.50;38.50;;;;;;5072887;28;20480;-63
2021/10/29 10:11:14;;;;;;;2.17;1.20;;;23.40;38.60;;;;;;5073111;28;20415;-63
2021/10/29 10:13:44;;;;;;;1.50;1.10;;;23.40;38.50;;;;;;5073021;28;20399;-63
2021/10/29 10:16:11;;;;;;;2.00;1.10;;;23.40;38.60;;;;;;5072736;28;20871;-63
2021/10/29 10:18:39;;;;;;;1.40;1.03;;;23.50;38.60;;;;;;5072900;28;20478;-63
2021/10/29 10:21:10;;;;;;;1.50;1.10;;;23.50;38.50;;;;;;5072772;28;20403;-63
2021/10/29 10:23:40;;;;;;;1.52;1.10;;;23.50;38.50;;;;;;5072844;28;20380;-63
2021/10/29 10:29:08;;;;;;;1.50;1.00;;;23.50;38.50;;;;;;5072961;28;20520;-63
2021/10/29 10:48:35;;;;;;;1.58;1.10;;;23.50;38.70;;;;;;5072504;28;20916;-63
2021/10/29 10:51:26;;;;;;;1.50;1.13;;;23.50;38.70;;;;;;5072350;28;20399;-63
2021/10/29 10:53:57;;;;;;;1.63;1.20;;;23.50;38.60;;;;;;5072255;28;20483;-63
2021/10/29 10:59:10;;;;;;;1.88;1.40;;;23.50;39.30;;;;;;5072211;28;20446;-63
2021/10/29 11:09:55;;;;;;;3.57;1.70;;;23.40;38.40;;;;;;5071496;28;20551;-62
2021/10/29 11:12:34;;;;;;;4.00;1.73;;;23.40;39.80;;;;;;5071927;28;20423;-63
2021/10/29 11:15:09;;;;;;;4.00;1.83;;;23.50;40.20;;;;;;5071823;28;20395;-63
2021/10/29 11:17:56;;;;;;;6.53;1.97;;;23.50;38.20;;;;;;5054060;28;20838;-83
2021/10/29 11:23:16;;;;;;;12.38;2.20;;;23.50;40.10;;;;;;5072925;28;20432;-83
2021/10/29 11:26:04;;;;;;;9.18;2.00;;;23.50;40.40;;;;;;5072725;28;20877;-71
2021/10/29 11:28:42;;;;;;;8.38;2.00;;;23.60;41.10;;;;;;5072418;28;20388;-62
2021/10/29 11:31:17;;;;;;;4.15;1.70;;;23.70;41.80;;;;;;5072275;28;20416;-63
2021/10/29 11:33:46;;;;;;;6.22;1.52;;;23.70;40.90;;;;;;5072979;28;20392;-79
2021/10/29 11:36:27;;;;;;;3.40;1.60;;;23.80;41.30;;;;;;5073239;28;20391;-86
2021/10/29 11:38:53;;;;;;;7.73;1.77;;;23.90;41.10;;;;;;5072802;28;20449;-81
2021/10/29 11:41:21;;;;;;;7.65;1.65;;;23.90;41.70;;;;;;5072647;28;20387;-85
2021/10/29 11:43:48;;;;;;;7.45;1.40;;;24.00;41.00;;;;;;5072273;28;20379;-63
2021/10/29 11:46:15;;;;;;;6.45;1.45;;;24.00;41.70;;;;;;5054647;28;20398;-63
2021/10/29 11:48:44;;;;;;;6.60;1.48;;;24.10;42.10;;;;;;5072059;28;20723;-81
2021/10/29 11:51:12;;;;;;;5.20;1.40;;;24.10;41.60;;;;;;5072392;28;20407;-81
2021/10/29 11:53:56;;;;;;;5.97;1.55;;;24.20;41.70;;;;;;5072230;28;20407;-77
2021/10/29 11:59:24;;;;;;;3.03;1.40;;;24.20;41.50;;;;;;5071964;28;20462;-63
2021/10/29 12:07:23;;;;;;;5.38;1.40;;;24.30;41.70;;;;;;5083229;28;20461;-63
2021/10/29 12:10:19;;;;;;;3.95;1.35;;;24.30;41.60;;;;;;5080293;28;20396;-66
2021/10/29 12:12:48;;;;;;;5.03;1.33;;;24.30;40.90;;;;;;5081898;28;20467;-86
2021/10/29 12:15:24;;;;;;;6.75;1.40;;;24.20;40.60;;;;;;5086198;28;20450;-90
2021/10/29 12:18:05;;;;;;;4.47;1.60;;;24.30;40.70;;;;;;5080068;28;20401;-87
2021/10/29 12:20:35;;;;;;;7.75;1.80;;;24.30;39.90;;;;;;5078044;28;20399;-86
2021/10/29 12:23:11;;;;;;;11.73;2.08;;;24.20;39.60;;;;;;5088425;28;20415;-62
2021/10/29 12:26:13;;;;;;;11.07;2.30;;;24.20;40.40;;;;;;5078320;28;20418;-80
2021/10/29 12:28:40;;;;;;;8.07;1.77;;;24.20;39.80;;;;;;5084141;28;20387;-84
2021/10/29 12:58:57;;;;;;;5.38;1.80;;;24.20;38.90;;;;;;5072269;28;20371;-85
2021/10/29 13:01:27;;;;;;;3.70;1.42;;;24.20;39.10;;;;;;5081386;28;20386;-85
2021/10/29 13:04:04;;;;;;;5.68;1.90;;;24.30;39.00;;;;;;5062170;28;20471;-78
2021/10/29 13:06:43;;;;;;;5.38;1.50;;;24.30;39.70;;;;;;5091351;28;20382;-86
2021/10/29 13:09:19;;;;;;;5.40;1.70;;;24.30;39.20;;;;;;5095042;28;20370;-82
2021/10/29 13:11:59;;;;;;;6.40;2.10;;;24.40;39.20;;;;;;5095493;28;20410;-81
2021/10/29 13:14:37;;;;;;;6.57;1.95;;;24.40;39.50;;;;;;5095594;28;20374;-84
2021/10/29 13:17:06;;;;;;;8.23;2.03;;;24.40;38.90;;;;;;5095174;28;20393;-83
2021/10/29 13:19:48;;;;;;;5.03;2.20;;;24.30;39.90;;;;;;5095034;28;20891;-84
2021/10/29 14:29:27;;;;;;;5.88;2.03;;;25.50;38.70;;;;;;5082472;28;20389;-82
2021/10/29 14:32:01;;;;;;;4.93;1.98;;;25.40;38.70;;;;;;5084694;28;20462;-78
2021/10/29 14:34:35;;;;;;;3.58;1.98;;;25.30;39.00;;;;;;5086092;28;20380;-86
2021/10/29 14:37:20;;;;;;;3.90;1.80;;;25.20;38.90;;;;;;5074250;28;20388;-85
2021/10/29 14:43:01;;;;;;;6.65;2.40;;;25.10;39.10;;;;;;5031139;28;20396;-63
2021/10/29 14:45:33;;;;;;;5.22;3.08;;;25.00;39.00;;;;;;5030066;28;20399;-62
2021/10/29 14:48:08;;;;;;;4.80;2.20;;;25.00;38.70;;;;;;5057253;28;20917;-63
2021/10/29 14:53:36;;;;;;;4.43;2.10;;;25.00;39.00;;;;;;5078963;28;20498;-62
2021/10/29 15:30:37;;;;;;;6.28;2.20;;;24.70;39.20;;;;;;5083106;28;20389;-64
2021/10/29 15:41:36;;;;;;;8.70;2.60;;;25.20;43.50;;;;;;5047325;28;20739;-65
2021/10/29 15:49:04;;;;;;;7.22;2.70;;;25.60;42.20;;;;;;5077747;28;20390;-63
2021/10/29 15:51:32;;;;;;;5.90;3.10;;;25.60;42.90;;;;;;5079156;28;20407;-64
2021/10/29 15:54:01;;;;;;;7.07;3.05;;;25.80;42.00;;;;;;5081044;28;20394;-64
2021/10/29 16:01:44;;;;;;;8.15;2.70;;;25.80;40.90;;;;;;5081680;28;20376;-63
2021/10/29 16:17:52;;;;;;;15.13;4.18;;;25.80;44.50;;;;;;5083166;28;20903;-64
2021/10/29 16:20:18;;;;;;;10.90;3.88;;;25.90;45.40;;;;;;5075843;28;20395;-76
2021/10/29 16:22:45;;;;;;;14.45;4.45;;;25.90;45.20;;;;;;5057760;28;20403;-64
2021/10/29 16:28:13;;;;;;;16.00;4.60;;;25.90;46.90;;;;;;5066695;28;20781;-89
2021/10/29 16:30:39;;;;;;;12.93;4.53;;;25.80;46.90;;;;;;5075564;28;20931;-64
2021/10/29 16:33:07;;;;;;;13.07;4.03;;;25.90;48.50;;;;;;5075558;28;20415;-64
2021/10/29 16:35:38;;;;;;;12.15;4.50;;;26.00;49.20;;;;;;5076913;28;20376;-77
2021/10/29 16:38:06;;;;;;;11.77;4.65;;;26.00;48.30;;;;;;5095930;28;20422;-84
2021/10/29 16:40:33;;;;;;;10.13;4.70;;;26.10;47.80;;;;;;5095609;28;20413;-83
2021/10/29 16:42:59;;;;;;;18.50;4.35;;;26.20;47.40;;;;;;5095484;28;20382;-88
2021/10/29 16:45:26;;;;;;;15.23;8.90;;;26.20;47.60;;;;;;5077618;28;20394;-64
2021/10/29 16:47:52;;;;;;;11.02;6.55;;;26.30;46.30;;;;;;5095583;28;20385;-64
2021/10/29 16:50:20;;;;;;;10.43;6.13;;;26.30;46.20;;;;;;5095490;28;20977;-63
2021/10/29 16:52:47;;;;;;;8.88;5.53;;;26.20;46.80;;;;;;5095267;28;20463;-64
2021/10/29 16:55:12;;;;;;;10.88;5.75;;;26.10;46.20;;;;;;5095706;28;20390;-64
2021/10/29 16:57:39;;;;;;;10.77;5.60;;;26.00;47.00;;;;;;5095725;28;20759;-80
2021/10/29 17:00:08;;;;;;;12.27;6.30;;;25.90;46.70;;;;;;5085530;28;20402;-64
2021/10/29 17:02:33;;;;;;;12.13;5.83;;;26.10;46.60;;;;;;5082349;28;20419;-63
2021/10/29 17:04:59;;;;;;;11.63;5.40;;;26.00;45.90;;;;;;5084386;28;20410;-84
2021/10/29 17:07:25;;;;;;;12.23;5.70;;;25.90;46.60;;;;;;5082167;28;20426;-64
2021/10/29 17:09:52;;;;;;;12.60;5.20;;;25.80;47.10;;;;;;5065465;28;20397;-64
2021/10/29 17:12:18;;;;;;;12.27;5.10;;;25.80;46.30;;;;;;5082715;28;20462;-86
2021/10/29 17:14:45;;;;;;;14.13;4.78;;;25.70;46.50;;;;;;5083280;28;20390;-86
2021/10/29 17:17:11;;;;;;;8.68;4.95;;;25.60;45.50;;;;;;5083681;28;20392;-64
2021/10/29 17:19:37;;;;;;;13.90;4.55;;;25.50;44.90;;;;;;5082145;28;20449;-84
2021/10/29 17:22:03;;;;;;;7.10;4.20;;;25.40;43.90;;;;;;5082416;28;20482;-63
2021/10/29 17:24:28;;;;;;;10.18;4.40;;;25.30;44.00;;;;;;5064206;28;20455;-64
2021/10/29 17:26:55;;;;;;;8.93;4.40;;;25.30;45.60;;;;;;5079507;28;20392;-88
2021/10/29 17:29:21;;;;;;;10.60;4.15;;;25.30;45.00;;;;;;5065632;28;20402;-64
2021/10/29 17:31:48;;;;;;;6.90;4.05;;;25.30;44.50;;;;;;5082921;28;20437;-64
2021/10/29 17:34:14;;;;;;;6.80;3.80;;;25.30;43.80;;;;;;5084008;28;20408;-64
2021/10/29 17:36:46;;;;;;;7.97;3.95;;;25.20;44.10;;;;;;5080753;28;20397;-79
2021/10/29 17:39:12;;;;;;;7.97;3.80;;;25.20;44.20;;;;;;5049919;28;20800;-65
2021/10/29 17:41:38;;;;;;;12.57;4.17;;;25.10;44.40;;;;;;5053464;28;20423;-84
2021/10/29 17:44:07;;;;;;;12.32;3.72;;;25.10;44.90;;;;;;5053272;28;20385;-67
2021/10/29 17:46:32;;;;;;;11.07;3.88;;;25.10;44.60;;;;;;5053298;28;20405;-75
2021/10/29 17:48:58;;;;;;;16.47;4.03;;;25.10;44.80;;;;;;5053786;28;20389;-86